Pagrindinis puslapis
METAR-TAF:

METAR-TAF

Oro uostai :

Siris, Iranas

platuma: 25-54-34N, ilguma: 054-32-22E, Aukštis: 13 m

Dabartinis oras

Ataskaita buvo paskelbta 41 minutes, ne 11:00 UTC
Vėjas 4 kt iš Pietų/Pietryčių
Temperatūra 33°C
Drėgmė 53%
Slėgis 1013 hPa
Matomumas 10 km arba daugiau
nėra debesų žemiau 1500 m ir nėra kamuolinių lietaus debesų

METAR: OIBS 141100Z 15004KT CAVOK 33/22 Q1013

Laikas: 15:11 (11:41 UTC)


TAF: trūkstamas

Orai ataskaitas ir orų prognozės (METAR, TAF).

turimą stotys yra geltonos ir raudonos taškus žemėlapyje.

Perkelti pele per norėdami pamatyti stoties vardą.

Tada spustelėkite, norėdami matyti oro stebėjimo ir prognozės.

Norėdami pakeisti žemėlapį: spustelėkite ant žalios mygtukų su juodo kryžiaus žemyn,; žalią mygtuką su brūkšneliu, jei norite nutolinti; arba žalių rodyklių gretimoms žemėlapius.


METAR-TAF: